Flight Track Log - Related Links

Times and Time Zones

All times are in EDT time to prevent confusion due to time zone crossing. See the LBQ968 flight status page for this flight to view local times or setup timezone preferences in your user account.

Time Position Orientation Groundspeed Altitude Reporting Facility
EDT Latitude Longitude Course Direction KTS MPH feet Rate Location/Type
Sat 08:45:02 PM 43.1167 -78.9333 90° East 112 129 900  Level Buffalo TRACON
Sat 08:46:09 PM 43.1164 -78.8792 90° East 134 154 2,300 1,219 Climbing Cleveland Center
Sat 08:47:10 PM 43.0883 -78.8344 131° Southeast 144 166 3,500 1,082 Climbing Cleveland Center
Sat 08:48:11 PM 43.0631 -78.7936 130° Southeast 146 168 4,500 934 Climbing Cleveland Center
Sat 08:49:12 PM 43.0278 -78.7644 149° Southeast 150 173 5,400 934 Climbing Cleveland Center
Sat 08:50:13 PM 42.9919 -78.7581 173° South 137 158 6,400 934 Climbing Cleveland Center
Sat 08:51:14 PM 42.9553 -78.7475 168° South 136 157 7,300 787 Climbing Cleveland Center
Sat 08:52:15 PM 42.9181 -78.7500 183° South 134 154 8,000 393 Climbing Cleveland Center
Sat 08:53:16 PM 42.8775 -78.7700 200° South 159 183 8,100 49 Climbing Cleveland Center
Sat 08:54:17 PM 42.8269 -78.7903 196° South 174 200 8,100 -49 Level Cleveland Center
Sat 08:55:18 PM 42.7764 -78.8131 198° South 182 209 8,000 -49 Descending Cleveland Center
Sat 08:56:19 PM 42.7314 -78.8350 200° South 181 208 8,000  Level Cleveland Center
Sat 08:57:21 PM 42.6814 -78.8589 199° South 181 208 8,000  Level Cleveland Center
Sat 08:58:22 PM 42.6308 -78.8822 199° South 182 209 8,000  Level Cleveland Center
Sat 08:59:23 PM 42.5844 -78.9039 199° South 182 209 8,000  Level Cleveland Center
Sat 09:00:24 PM 42.5339 -78.9269 199° South 183 211 8,000  Level Cleveland Center
Sat 09:01:25 PM 42.4833 -78.9519 200° South 184 212 8,000 49 Level Cleveland Center
Sat 09:02:26 PM 42.4356 -78.9753 200° South 188 216 8,100 98 Climbing Cleveland Center
Sat 09:03:27 PM 42.3856 -78.9994 200° South 185 213 8,200  Climbing Cleveland Center
Sat 09:04:28 PM 42.3350 -79.0244 200° South 186 214 8,100 -49 Descending Cleveland Center
Sat 09:05:29 PM 42.2881 -79.0472 200° South 186 214 8,100  Level Cleveland Center
Sat 09:06:30 PM 42.2372 -79.0722 200° South 186 214 8,100  Level Cleveland Center
Sat 09:07:31 PM 42.1906 -79.0936 199° South 186 214 8,100  Level Cleveland Center
Sat 09:08:32 PM 42.1389 -79.1169 199° South 186 214 8,100  Level Cleveland Center
Sat 09:09:33 PM 42.0878 -79.1406 199° South 187 215 8,100  Level Cleveland Center
Sat 09:10:34 PM 42.0400 -79.1639 200° South 187 215 8,100  Level Cleveland Center
Sat 09:11:35 PM 41.9883 -79.1858 198° South 187 215 8,100  Level Cleveland Center
Sat 09:12:36 PM 41.9372 -79.2094 199° South 187 215 8,100  Level Cleveland Center
Sat 09:13:37 PM 41.8889 -79.2319 199° South 187 215 8,100  Level Cleveland Center
Sat 09:14:38 PM 41.8372 -79.2533 197° South 187 215 8,100 -49 Level Cleveland Center
Sat 09:15:39 PM 41.7883 -79.2753 199° South 188 216 8,000 -49 Descending Cleveland Center
Sat 09:16:40 PM 41.7383 -79.2956 197° South 188 216 8,000  Level Cleveland Center
Sat 09:17:41 PM 41.6886 -79.3181 199° South 189 217 8,000 49 Level Cleveland Center
Sat 09:18:42 PM 41.6406 -79.3394 198° South 186 214 8,100 49 Climbing Cleveland Center
Sat 09:19:43 PM 41.5908 -79.3611 198° South 186 214 8,100  Level Cleveland Center
Sat 09:20:44 PM 41.5308 -79.3850 197° South 187 215 8,100  Level Cleveland Center
Sat 09:21:45 PM 41.4814 -79.4072 199° South 187 215 8,100  Level Cleveland Center
Sat 09:22:46 PM 41.4325 -79.4281 198° South 188 216 8,100  Level Cleveland Center
Sat 09:23:47 PM 41.3819 -79.4517 199° South 188 216 8,100  Level Cleveland Center
Sat 09:24:48 PM 41.3314 -79.4731 198° South 188 216 8,100  Level Cleveland Center
Sat 09:25:49 PM 41.2814 -79.4956 199° South 188 216 8,100  Level Cleveland Center
Sat 09:26:50 PM 41.2314 -79.5192 200° South 189 217 8,100  Level Cleveland Center
Sat 09:27:51 PM 41.1825 -79.5406 198° South 188 216 8,100  Level Cleveland Center
Sat 09:28:52 PM 41.1325 -79.5633 199° South 188 216 8,100 -443 Level Cleveland Center
Sat 09:29:53 PM 41.0794 -79.5894 200° South 199 229 7,200 -711 Descending Cleveland Center
Sat 09:31:07 PM 41.0133 -79.6208 200° South 209 241 6,500 -622 Descending Cleveland Center
Sat 09:32:08 PM 40.9578 -79.6469 200° South 209 241 5,800 -639 Descending Cleveland Center
Sat 09:33:09 PM 40.9044 -79.6739 201° Southwest 209 241 5,200 -443 Descending Cleveland Center
Sat 09:34:10 PM 40.8433 -79.7056 201° Southwest 202 232 4,900 -148 Descending Cleveland Center
Sat 09:35:11 PM 40.7953 -79.7300 201° Southwest 190 219 4,900  Level Cleveland Center
Sat 09:36:12 PM 40.7469 -79.7544 201° Southwest 187 215 4,900 49 Level Cleveland Center
Sat 09:37:13 PM 40.6986 -79.7792 201° Southwest 187 215 5,000 -49 Climbing Cleveland Center
Sat 09:38:14 PM 40.6503 -79.8022 200° South 187 215 4,800 -393 Descending Cleveland Center
Sat 09:39:15 PM 40.5994 -79.8264 200° South 192 221 4,200 -443 Descending Cleveland Center
Sat 09:40:16 PM 40.5489 -79.8506 200° South 193 222 3,900 -639 Descending Cleveland Center
Sat 09:41:17 PM 40.4969 -79.8753 200° South 194 223 2,900 -439 Descending Cleveland Center
Sat 09:42:19 PM 40.4486 -79.8967 199° South 192 221 3,000 -49 Climbing Cleveland Center
Sat 09:43:20 PM 40.4069 -79.8997 183° South 166 191 2,800 -492 Descending Cleveland Center
Sat 09:44:21 PM 40.3692 -79.9031 184° South 147 169 2,000 -787 Descending Cleveland Center
Sat 09:45:22 PM 40.3539 -79.9242 226° Southwest 113 130 1,200 -787 Descending Cleveland Center
Sat 09:47:00 PM 40.3500 -79.9167 North  Level FlightAware Approximate

Login

Don't have an account? Register now (free) for customized features, flight alerts, and more!